Time;durP1;ratioP1;P1;durP2;ratioP2;P2;SDS_P1;SDS_P2;PMS_P1;PMS_P2;Temp;Humidity;BMP_temperature;BMP_pressure;BME280_temperature;BME280_humidity;BME280_pressure;Samples;Min_cycle;Max_cycle;Signal;HPM_P1;HPM_P2
2021/07/28 00:01:28;;;;;;;;;7.25;6.00;;;;;18.89;100.00;100937.75;5084286;27;45391;-73
2021/07/28 00:03:54;;;;;;;;;6.50;6.25;;;;;18.87;100.00;100936.09;5091578;27;45250;-74
2021/07/28 00:06:20;;;;;;;;;6.50;5.25;;;;;18.86;100.00;100943.16;5079218;27;46311;-72
2021/07/28 00:08:46;;;;;;;;;7.50;7.00;;;;;18.84;100.00;100931.81;5096534;27;45456;-73
2021/07/28 00:11:13;;;;;;;;;7.00;6.75;;;;;18.88;100.00;100940.47;5098630;27;45497;-73
2021/07/28 00:13:38;;;;;;;;;7.00;6.00;;;;;18.79;100.00;100939.09;5083208;27;45530;-73
2021/07/28 00:16:09;;;;;;;;;6.25;6.00;;;;;18.77;100.00;100937.41;5086703;27;46007;-74
2021/07/28 00:23:50;;;;;;;;;5.75;5.00;;;;;18.66;100.00;100940.56;5078589;27;45230;-74
2021/07/28 00:26:18;;;;;;;;;5.75;5.75;;;;;18.70;100.00;100943.91;5096865;27;45310;-72
2021/07/28 00:28:43;;;;;;;;;8.00;6.00;;;;;18.62;100.00;100931.91;5096769;27;45355;-73
2021/07/28 00:31:11;;;;;;;;;9.00;6.00;;;;;18.61;100.00;100929.31;5095632;27;45299;-74
2021/07/28 00:33:36;;;;;;;;;5.00;5.00;;;;;18.59;100.00;100929.38;5094028;27;45518;-74
2021/07/28 00:36:02;;;;;;;;;5.25;5.00;;;;;18.59;100.00;100931.16;5093949;27;46425;-74
2021/07/28 00:38:27;;;;;;;;;5.75;5.00;;;;;18.48;100.00;100921.03;5077763;27;45383;-73
2021/07/28 00:40:52;;;;;;;;;8.00;7.50;;;;;18.52;100.00;100932.34;5077641;27;45395;-72
2021/07/28 00:43:24;;;;;;;;;5.50;5.50;;;;;18.50;100.00;100928.91;5096041;27;45682;-72
2021/07/28 00:45:49;;;;;;;;;5.50;5.50;;;;;18.45;100.00;100926.47;5097109;27;47020;-73
2021/07/28 00:48:17;;;;;;;;;5.25;4.50;;;;;18.45;100.00;100928.25;5092189;27;45473;-72
2021/07/28 00:50:44;;;;;;;;;4.25;3.75;;;;;18.39;100.00;100920.59;5087463;27;45405;-72
2021/07/28 00:53:19;;;;;;;;;4.00;4.00;;;;;18.40;100.00;100922.31;5095803;27;45368;-72
2021/07/28 00:55:49;;;;;;;;;5.00;5.00;;;;;18.32;100.00;100912.91;5086764;27;45353;-72
2021/07/28 00:58:15;;;;;;;;;7.00;4.50;;;;;18.40;100.00;100927.59;5093704;27;45480;-73
2021/07/28 01:00:41;;;;;;;;;5.00;5.00;;;;;18.39;100.00;100928.53;5089340;27;45399;-73
2021/07/28 01:03:08;;;;;;;;;6.00;4.25;;;;;18.38;100.00;100926.81;5077316;27;45391;-72
2021/07/28 01:05:33;;;;;;;;;6.50;5.50;;;;;18.39;100.00;100937.31;5091163;27;45420;-72
2021/07/28 01:07:59;;;;;;;;;5.00;5.00;;;;;18.32;100.00;100919.97;5089069;27;45395;-73
2021/07/28 01:10:24;;;;;;;;;6.00;6.00;;;;;18.35;100.00;100931.31;5093073;27;45483;-73
2021/07/28 01:12:54;;;;;;;;;5.50;5.50;;;;;18.39;100.00;100936.47;5087380;27;45311;-73
2021/07/28 01:18:09;;;;;;;;;4.25;4.25;;;;;18.38;100.00;100940.88;5076857;27;45614;-73
2021/07/28 01:20:45;;;;;;;;;5.75;4.00;;;;;18.37;100.00;100939.16;5092504;27;45340;-73
2021/07/28 01:23:21;;;;;;;;;5.00;3.75;;;;;18.36;100.00;100935.66;5088720;27;45454;-73
2021/07/28 01:25:48;;;;;;;;;6.00;5.00;;;;;18.33;100.00;100940.19;5079716;27;46309;-73
2021/07/28 01:28:14;;;;;;;;;6.00;5.00;;;;;18.31;100.00;100939.41;5075786;27;45514;-73
2021/07/28 01:30:39;;;;;;;;;5.50;4.00;;;;;18.31;100.00;100942.06;5089336;27;45516;-73
2021/07/28 01:33:06;;;;;;;;;5.00;5.00;;;;;18.30;100.00;100940.34;5076610;27;45387;-72
2021/07/28 01:35:41;;;;;;;;;4.50;4.00;;;;;18.28;100.00;100934.25;5087693;27;45341;-73
2021/07/28 01:38:06;;;;;;;;;5.00;4.00;;;;;18.28;100.00;100926.34;5092509;27;45472;-72
2021/07/28 01:40:39;;;;;;;;;5.50;3.75;;;;;18.22;100.00;100927.47;5085635;27;45676;-72
2021/07/28 01:43:15;;;;;;;;;4.50;4.25;;;;;18.24;100.00;100938.81;5076714;27;45584;-73
2021/07/28 01:45:41;;;;;;;;;5.00;4.00;;;;;18.26;100.00;100942.25;5079380;27;45496;-71
2021/07/28 01:48:07;;;;;;;;;4.00;4.00;;;;;18.10;100.00;100921.81;5076436;27;45467;-73
2021/07/28 01:50:33;;;;;;;;;5.25;5.00;;;;;18.19;100.00;100939.94;5080224;27;45521;-72
2021/07/28 01:53:03;;;;;;;;;4.75;4.00;;;;;18.20;100.00;100950.47;5084866;27;45357;-72
2021/07/28 01:55:28;;;;;;;;;4.00;4.00;;;;;18.15;100.00;100938.38;5080559;27;45415;-73
2021/07/28 01:57:54;;;;;;;;;5.75;5.00;;;;;18.15;100.00;100941.88;5096443;27;45351;-73
2021/07/28 02:00:21;;;;;;;;;3.25;3.25;;;;;18.13;100.00;100946.38;5086406;27;45413;-73
2021/07/28 02:02:46;;;;;;;;;5.50;4.25;;;;;18.18;100.00;100948.81;5084426;27;45443;-72
2021/07/28 02:05:13;;;;;;;;;6.00;4.00;;;;;18.16;100.00;100940.94;5076217;27;45970;-72
2021/07/28 02:07:38;;;;;;;;;5.00;3.75;;;;;18.15;100.00;100944.50;5096317;27;45421;-73
2021/07/28 02:10:04;;;;;;;;;6.00;5.00;;;;;18.14;100.00;100945.44;5084126;27;45274;-72
2021/07/28 02:12:29;;;;;;;;;5.50;4.00;;;;;18.16;100.00;100959.44;5084920;27;45512;-72
2021/07/28 02:15:04;;;;;;;;;4.75;4.00;;;;;18.14;100.00;100957.78;5086104;27;45257;-71
2021/07/28 02:17:29;;;;;;;;;5.00;3.50;;;;;18.11;100.00;100953.50;5075908;27;45504;-72
2021/07/28 02:19:54;;;;;;;;;4.75;4.75;;;;;18.08;100.00;100944.81;5081518;27;45302;-71
2021/07/28 02:22:20;;;;;;;;;6.75;4.75;;;;;18.10;100.00;100951.75;5081934;27;45433;-71
2021/07/28 02:24:45;;;;;;;;;5.25;4.00;;;;;18.15;100.00;100962.16;5075859;27;46159;-72
2021/07/28 02:27:10;;;;;;;;;4.25;3.75;;;;;18.14;100.00;100952.50;5088642;27;45445;-72
2021/07/28 02:29:36;;;;;;;;;4.00;4.00;;;;;18.08;100.00;100943.03;5076644;27;45485;-71
2021/07/28 02:32:03;;;;;;;;;2.75;2.00;;;;;18.09;100.00;100947.38;5087220;27;45434;-72
2021/07/28 02:34:32;;;;;;;;;3.50;3.50;;;;;18.10;100.00;100943.81;5089609;27;46291;-72
2021/07/28 02:36:58;;;;;;;;;4.00;3.00;;;;;18.11;100.00;100950.00;5091453;27;45452;-73
2021/07/28 02:39:24;;;;;;;;;4.00;4.00;;;;;18.05;100.00;100945.81;5082940;27;45514;-72
2021/07/28 02:41:49;;;;;;;;;3.50;3.50;;;;;18.04;100.00;100946.72;5079511;27;45253;-72
2021/07/28 02:44:15;;;;;;;;;3.00;3.00;;;;;18.00;100.00;100945.16;5084885;27;47695;-72
2021/07/28 02:46:40;;;;;;;;;3.00;3.00;;;;;18.00;100.00;100939.88;5079559;27;45388;-71
2021/07/28 02:49:06;;;;;;;;;5.50;2.75;;;;;18.02;100.00;100951.22;5079982;27;45746;-72
2021/07/28 02:51:31;;;;;;;;;3.00;2.75;;;;;17.95;100.00;100937.41;5093294;27;45504;-72
2021/07/28 02:53:57;;;;;;;;;4.25;3.25;;;;;17.95;100.00;100940.06;5086914;27;45577;-72
2021/07/28 02:56:25;;;;;;;;;4.00;3.00;;;;;17.98;100.00;100944.34;5098853;27;45469;-72
2021/07/28 02:58:50;;;;;;;;;3.25;3.25;;;;;17.97;100.00;100950.56;5078688;27;45462;-71
2021/07/28 03:01:15;;;;;;;;;2.00;2.00;;;;;17.90;100.00;100947.31;5078943;27;45469;-72
2021/07/28 03:03:41;;;;;;;;;2.50;2.00;;;;;17.93;100.00;100952.47;5082533;27;46211;-72
2021/07/28 03:06:06;;;;;;;;;2.75;2.75;;;;;17.92;100.00;100961.31;5097219;27;45340;-72
2021/07/28 03:08:32;;;;;;;;;4.50;4.00;;;;;17.84;100.00;100952.84;5099027;27;45543;-71
2021/07/28 03:10:57;;;;;;;;;3.00;2.75;;;;;17.90;100.00;100967.59;5090904;27;45488;-71
2021/07/28 03:13:22;;;;;;;;;5.00;4.00;;;;;17.90;100.00;100976.38;5081725;27;47050;-71
2021/07/28 03:15:50;;;;;;;;;3.25;2.75;;;;;17.90;100.00;100972.88;5079946;27;45372;-71
2021/07/28 03:18:16;;;;;;;;;4.50;2.50;;;;;17.88;100.00;100974.69;5086719;27;45642;-72
2021/07/28 03:20:43;;;;;;;;;3.50;3.25;;;;;17.81;100.00;100970.59;5078556;27;45448;-72
2021/07/28 03:23:08;;;;;;;;;2.75;2.25;;;;;17.80;100.00;100963.59;5087336;27;46762;-70
2021/07/28 03:25:33;;;;;;;;;2.75;2.75;;;;;17.81;100.00;100971.44;5098829;27;45625;-71
2021/07/28 03:27:59;;;;;;;;;3.75;3.00;;;;;17.83;100.00;100972.25;5098823;27;45458;-71
2021/07/28 03:30:24;;;;;;;;;3.00;1.00;;;;;17.86;100.00;100973.91;5084304;27;45419;-71
2021/07/28 03:32:49;;;;;;;;;4.00;3.25;;;;;17.84;100.00;100968.69;5094090;27;45979;-72
2021/07/28 03:35:15;;;;;;;;;4.00;3.00;;;;;17.85;100.00;100980.97;5078147;27;45500;-72
2021/07/28 03:37:40;;;;;;;;;3.25;3.00;;;;;17.84;100.00;100981.88;5092408;27;45511;-72
2021/07/28 03:40:06;;;;;;;;;4.00;3.00;;;;;17.83;100.00;100976.66;5078828;27;45430;-71
2021/07/28 03:42:32;;;;;;;;;3.00;2.50;;;;;17.81;100.00;100975.88;5078102;27;46085;-71
2021/07/28 03:44:58;;;;;;;;;4.00;3.00;;;;;17.85;100.00;100977.47;5078489;27;45636;-71
2021/07/28 03:47:27;;;;;;;;;2.25;2.00;;;;;17.82;100.00;100970.53;5078378;27;45366;-70
2021/07/28 03:49:52;;;;;;;;;4.75;4.00;;;;;17.83;100.00;100976.66;5083996;27;45567;-72
2021/07/28 03:52:18;;;;;;;;;3.25;2.00;;;;;17.73;100.00;100963.00;5097684;27;45554;-69
2021/07/28 03:54:44;;;;;;;;;3.25;2.50;;;;;17.82;100.00;100978.44;5098434;27;45428;-71
2021/07/28 03:57:12;;;;;;;;;3.00;3.00;;;;;17.82;100.00;100990.81;5098718;27;45565;-71
2021/07/28 03:59:39;;;;;;;;;3.75;3.00;;;;;17.81;100.00;100989.94;5096003;27;45440;-69
2021/07/28 04:02:05;;;;;;;;;6.00;3.00;;;;;17.79;100.00;100991.78;5083605;27;48314;-71
2021/07/28 04:04:30;;;;;;;;;4.00;3.50;;;;;17.73;100.00;100979.69;5087202;27;45270;-71
2021/07/28 04:06:56;;;;;;;;;5.00;3.00;;;;;17.81;100.00;100989.94;5092949;27;45353;-70
2021/07/28 04:09:21;;;;;;;;;3.25;2.75;;;;;17.79;100.00;100983.88;5091523;27;45514;-71
2021/07/28 04:11:46;;;;;;;;;3.50;2.75;;;;;17.81;100.00;101002.28;5097930;27;45429;-71
2021/07/28 04:14:12;;;;;;;;;3.00;3.00;;;;;17.73;100.00;100987.63;5091474;27;45419;-71
2021/07/28 04:16:39;;;;;;;;;2.00;2.00;;;;;17.79;100.00;101001.50;5077745;27;45880;-71
2021/07/28 04:19:04;;;;;;;;;1.75;1.75;;;;;17.80;100.00;100997.94;5092255;27;45406;-71
2021/07/28 04:21:30;;;;;;;;;4.25;2.00;;;;;17.72;100.00;100985.91;5081260;27;46178;-71
2021/07/28 04:23:56;;;;;;;;;3.25;2.25;;;;;17.73;100.00;100994.69;5077303;27;45276;-72
2021/07/28 04:26:22;;;;;;;;;2.25;1.50;;;;;17.74;100.00;101001.69;5086661;27;45301;-72
2021/07/28 04:28:47;;;;;;;;;2.25;2.00;;;;;17.72;100.00;100993.81;5095718;27;45633;-71
2021/07/28 04:31:13;;;;;;;;;4.00;2.75;;;;;17.78;100.00;101013.84;5084087;27;45443;-71
2021/07/28 04:33:38;;;;;;;;;3.25;2.00;;;;;17.73;100.00;101006.09;5084603;27;45541;-70
2021/07/28 04:36:04;;;;;;;;;3.00;2.00;;;;;17.71;100.00;101001.81;5091828;27;45482;-70
2021/07/28 04:38:32;;;;;;;;;2.00;2.00;;;;;17.74;100.00;101006.97;5077749;27;45403;-72
2021/07/28 04:41:00;;;;;;;;;2.25;2.25;;;;;17.79;100.00;101015.56;5094350;27;45720;-72
2021/07/28 04:43:26;;;;;;;;;2.75;2.00;;;;;17.76;100.00;101015.69;5087515;27;45555;-72
2021/07/28 04:46:02;;;;;;;;;4.00;2.75;;;;;17.78;100.00;101015.63;5091470;27;45346;-72
2021/07/28 04:48:28;;;;;;;;;3.00;2.00;;;;;17.78;100.00;101012.97;5087897;27;45431;-72
2021/07/28 04:50:54;;;;;;;;;3.00;2.00;;;;;17.78;100.00;101008.56;5097664;27;45478;-71
2021/07/28 04:53:20;;;;;;;;;3.75;3.00;;;;;17.78;100.00;101008.56;5089864;27;45402;-71
2021/07/28 04:55:56;;;;;;;;;3.00;3.00;;;;;17.72;100.00;100998.25;5077484;27;45758;-72
2021/07/28 04:58:25;;;;;;;;;3.50;1.75;;;;;17.81;100.00;101011.06;5091459;27;45535;-69
2021/07/28 05:00:51;;;;;;;;;1.00;1.00;;;;;17.84;100.00;101010.94;5076824;27;46589;-72
2021/07/28 05:03:20;;;;;;;;;2.00;1.75;;;;;17.69;100.00;100995.72;5090522;27;45582;-72
2021/07/28 05:05:46;;;;;;;;;2.50;2.50;;;;;17.83;100.00;101017.16;5077063;27;45304;-73
2021/07/28 05:08:12;;;;;;;;;2.00;2.00;;;;;17.78;100.00;101007.69;5077437;27;45415;-73
2021/07/28 05:10:37;;;;;;;;;3.75;2.25;;;;;17.80;100.00;101004.06;5085659;27;45539;-72
2021/07/28 05:13:04;;;;;;;;;3.00;2.50;;;;;17.88;100.00;101016.97;5076599;27;45364;-69
2021/07/28 05:15:30;;;;;;;;;3.75;2.00;;;;;17.90;100.00;101018.66;5081972;27;45490;-72
2021/07/28 05:17:55;;;;;;;;;2.25;2.00;;;;;17.92;100.00;101015.94;5087807;27;45481;-72
2021/07/28 05:20:21;;;;;;;;;2.00;1.50;;;;;17.91;100.00;101016.88;5076397;27;46263;-72
2021/07/28 05:22:47;;;;;;;;;3.50;2.00;;;;;18.00;100.00;101030.56;5117213;27;45328;-73
2021/07/28 05:25:14;;;;;;;;;2.00;2.00;;;;;17.97;100.00;101017.47;5096714;27;45365;-73
2021/07/28 05:27:39;;;;;;;;;2.00;2.00;;;;;17.96;100.00;101022.81;5082980;27;45350;-70
2021/07/28 05:30:05;;;;;;;;;3.00;1.75;;;;;18.00;100.00;101030.56;5096330;27;46269;-72
2021/07/28 05:32:32;;;;;;;;;3.00;3.00;;;;;18.01;100.00;101020.84;5095415;27;45606;-74
2021/07/28 05:34:58;;;;;;;;;3.25;3.00;;;;;18.04;100.00;101026.00;5086939;27;45426;-71
2021/07/28 05:37:24;;;;;;;;;1.00;1.00;;;;;18.12;100.00;101025.72;5080047;27;45439;-72
2021/07/28 05:39:50;;;;;;;;;2.00;2.00;;;;;18.12;100.00;101023.06;5088403;27;46692;-72
2021/07/28 05:42:18;;;;;;;;;2.50;2.50;;;;;18.16;100.00;101024.66;5082288;27;45363;-70
2021/07/28 05:44:43;;;;;;;;;2.75;2.00;;;;;18.15;100.00;101020.28;5090696;27;45363;-72
2021/07/28 05:47:09;;;;;;;;;3.00;2.00;;;;;18.18;100.00;101021.03;5088433;27;45389;-71
2021/07/28 05:49:34;;;;;;;;;3.00;2.00;;;;;18.18;100.00;101021.03;5091807;27;45485;-71
2021/07/28 05:52:00;;;;;;;;;5.00;3.00;;;;;18.24;100.00;101028.69;5076189;27;45402;-70
2021/07/28 05:54:26;;;;;;;;;1.25;1.25;;;;;18.28;100.00;101037.34;5084139;27;45400;-74
2021/07/28 05:56:51;;;;;;;;;3.75;2.75;;;;;18.29;100.00;101032.00;5076341;27;45419;-70
2021/07/28 05:59:17;;;;;;;;;2.25;2.25;;;;;18.25;100.00;101024.25;5085235;27;46548;-72
2021/07/28 06:01:43;;;;;;;;;2.75;2.75;;;;;18.26;100.00;101032.13;5086701;27;45432;-70
2021/07/28 06:04:08;;;;;;;;;3.50;3.25;;;;;18.19;100.00;101019.25;5078184;27;45503;-69
2021/07/28 06:06:34;;;;;;;;;1.25;1.00;;;;;18.26;100.00;101036.56;5096986;27;45322;-70
2021/07/28 06:08:59;;;;;;;;;2.00;2.00;;;;;18.24;100.00;101039.25;5096406;27;45305;-70
2021/07/28 06:11:25;;;;;;;;;4.00;2.00;;;;;18.26;100.00;101041.84;5096461;27;45379;-71
2021/07/28 06:13:50;;;;;;;;;3.50;2.25;;;;;18.27;100.00;101049.72;5081846;27;45413;-72
2021/07/28 06:16:16;;;;;;;;;2.00;2.00;;;;;18.10;100.00;101014.31;5099405;27;45490;-72
2021/07/28 06:18:41;;;;;;;;;2.25;2.00;;;;;18.33;100.00;101053.88;5084907;27;46447;-71
2021/07/28 06:21:06;;;;;;;;;3.75;3.75;;;;;18.35;100.00;101050.28;5091912;27;45465;-71
2021/07/28 06:23:32;;;;;;;;;5.00;2.75;;;;;18.40;100.00;101047.44;5093432;27;45467;-73
2021/07/28 06:25:57;;;;;;;;;2.50;2.00;;;;;18.52;100.00;101052.19;5079716;27;45424;-70
2021/07/28 06:28:26;;;;;;;;;3.00;2.75;;;;;18.62;100.00;101056.22;5091174;27;45522;-71
2021/07/28 06:30:51;;;;;;;;;3.00;2.75;;;;;18.66;100.00;101056.94;5085226;27;45331;-69
2021/07/28 06:33:22;;;;;;;;;2.00;2.00;;;;;18.75;100.00;101055.66;5098469;27;45386;-72
2021/07/28 06:35:48;;;;;;;;;4.00;3.00;;;;;18.84;100.00;101057.94;5097265;27;45509;-71
2021/07/28 06:38:14;;;;;;;;;4.50;3.50;;;;;18.97;100.00;101062.59;5085344;27;45654;-70
2021/07/28 06:40:43;;;;;;;;;5.00;3.75;;;;;19.09;100.00;101063.88;5078983;27;45347;-71
2021/07/28 06:43:09;;;;;;;;;3.00;3.00;;;;;19.10;100.00;101051.50;5086185;27;45326;-72
2021/07/28 06:45:35;;;;;;;;;4.00;3.50;;;;;19.12;100.00;101052.28;5097742;27;45470;-71
2021/07/28 06:48:00;;;;;;;;;3.75;3.00;;;;;19.17;100.00;101060.88;5092610;27;46108;-71
2021/07/28 06:50:26;;;;;;;;;3.00;2.25;;;;;19.18;100.00;101063.44;5087129;27;45466;-71
2021/07/28 06:52:51;;;;;;;;;2.75;1.75;;;;;19.21;100.00;101065.94;5092410;27;45389;-71
2021/07/28 06:55:16;;;;;;;;;2.75;2.50;;;;;19.25;100.00;101066.69;5087882;27;45359;-70
2021/07/28 06:57:43;;;;;;;;;2.75;2.25;;;;;19.16;100.00;101046.78;5087752;27;45383;-71
2021/07/28 07:00:08;;;;;;;;;2.00;2.00;;;;;19.22;100.00;101067.66;5078990;27;45600;-71
2021/07/28 07:02:34;;;;;;;;;2.00;2.00;;;;;19.24;100.00;101065.84;5120471;27;45494;-71
2021/07/28 07:05:00;;;;;;;;;3.75;3.00;;;;;19.31;100.00;101071.72;5084226;27;45446;-70
2021/07/28 07:07:25;;;;;;;;;4.00;3.00;;;;;19.41;100.00;101066.84;5095872;27;46049;-71
2021/07/28 07:09:53;;;;;;;;;4.25;3.00;;;;;19.42;100.00;101064.13;5091068;27;45434;-70
2021/07/28 07:12:19;;;;;;;;;3.75;2.50;;;;;19.51;100.00;101063.72;5093618;27;45417;-71
2021/07/28 07:14:48;;;;;;;;;3.00;3.00;;;;;19.55;100.00;101067.13;5083516;27;45821;-70
2021/07/28 07:17:13;;;;;;;;;3.00;3.00;;;;;19.62;100.00;101060.59;5095036;27;45473;-71
2021/07/28 07:19:38;;;;;;;;;2.25;2.00;;;;;19.63;100.00;101066.75;5087499;27;45489;-71
2021/07/28 07:22:09;;;;;;;;;3.25;2.00;;;;;19.74;100.00;101072.41;5098616;27;45618;-69
2021/07/28 07:24:35;;;;;;;;;3.00;2.00;;;;;19.80;100.00;101077.41;5099360;27;45406;-70
2021/07/28 07:27:01;;;;;;;;;4.75;3.25;;;;;19.83;100.00;101082.56;5082635;27;46201;-72
2021/07/28 07:29:27;;;;;;;;;2.25;2.00;;;;;19.75;100.00;101071.50;5092049;27;45441;-69
2021/07/28 07:31:53;;;;;;;;;3.00;3.00;;;;;19.74;100.00;101067.97;5079665;27;45389;-71
2021/07/28 07:34:19;;;;;;;;;2.50;2.00;;;;;19.71;100.00;101070.78;5090563;27;45350;-71
2021/07/28 07:36:44;;;;;;;;;2.00;2.00;;;;;19.77;100.00;101067.84;5096112;27;46361;-71
2021/07/28 07:39:09;;;;;;;;;3.00;2.50;;;;;19.84;100.00;101069.25;5098650;27;45309;-71
2021/07/28 07:41:35;;;;;;;;;1.00;1.00;;;;;19.94;100.00;101069.69;5097257;27;45571;-70
2021/07/28 07:44:01;;;;;;;;;3.00;2.75;;;;;20.09;100.00;101081.31;5084249;27;45413;-70
2021/07/28 07:46:27;;;;;;;;;3.25;3.00;;;;;20.19;100.00;101078.16;5083664;27;45823;-71
2021/07/28 07:48:54;;;;;;;;;2.00;2.00;;;;;20.23;100.00;101065.63;5094048;27;45257;-71
2021/07/28 07:51:20;;;;;;;;;2.50;2.50;;;;;20.43;100.00;101075.28;5083654;27;45403;-70
2021/07/28 07:53:45;;;;;;;;;2.75;2.00;;;;;20.61;100.00;101084.97;5079308;27;45914;-70
2021/07/28 07:56:11;;;;;;;;;2.00;1.50;;;;;20.65;100.00;101083.00;5085560;27;46897;-70
2021/07/28 07:58:36;;;;;;;;;2.25;2.25;;;;;20.68;100.00;101083.72;5088339;27;45548;-70
2021/07/28 08:01:08;;;;;;;;;3.25;2.00;;;;;20.66;100.00;101071.47;5096531;27;46336;-70
2021/07/28 08:03:35;;;;;;;;;1.00;1.00;;;;;20.64;100.00;101060.94;5083922;27;45512;-70
2021/07/28 08:06:00;;;;;;;;;3.75;3.50;;;;;20.71;100.00;101072.09;5088556;27;46336;-70
2021/07/28 08:08:26;;;;;;;;;4.00;3.00;;;;;20.66;100.00;101045.78;5093239;27;45420;-70
2021/07/28 08:10:53;;;;;;;;;2.75;2.00;;;;;20.84;100.00;101067.88;5097804;27;45525;-70
2021/07/28 08:13:18;;;;;;;;;3.50;3.00;;;;;20.70;100.00;101041.19;5084736;27;45352;-71
2021/07/28 08:15:43;;;;;;;;;1.25;1.25;;;;;20.87;100.00;101065.06;5082632;27;46312;-70
2021/07/28 08:18:09;;;;;;;;;1.50;1.50;;;;;20.82;100.00;101066.22;5086557;27;45462;-69
2021/07/28 08:20:36;;;;;;;;;2.25;1.75;;;;;20.71;100.00;101062.31;5091608;27;45208;-70
2021/07/28 08:23:02;;;;;;;;;1.75;1.25;;;;;20.70;100.00;101068.56;5097942;27;45607;-70
2021/07/28 08:25:27;;;;;;;;;3.25;2.00;;;;;20.63;100.00;101072.47;5081650;27;45447;-70
2021/07/28 08:27:53;;;;;;;;;1.25;1.25;;;;;20.60;100.00;101061.16;5095888;27;45485;-70
2021/07/28 08:30:18;;;;;;;;;6.25;5.25;;;;;20.67;100.00;101068.72;5096660;27;45482;-70
2021/07/28 08:32:44;;;;;;;;;2.00;1.00;;;;;20.77;100.00;101069.97;5091239;27;45489;-69
2021/07/28 08:35:09;;;;;;;;;1.00;1.00;;;;;20.79;100.00;101060.13;5076997;27;46580;-69
2021/07/28 08:37:37;;;;;;;;;2.50;1.50;;;;;20.93;100.00;101074.50;5083801;27;45561;-69
2021/07/28 08:40:16;;;;;;;;;1.00;1.00;;;;;21.05;100.00;101077.38;5087539;27;45477;-69
2021/07/28 08:42:46;;;;;;;;;1.50;1.00;;;;;21.22;100.00;101080.91;5090439;27;45695;-69
2021/07/28 08:45:15;;;;;;;;;3.25;1.00;;;;;21.35;100.00;101074.06;5087455;27;46243;-70
2021/07/28 08:47:42;;;;;;;;;0.50;0.00;;;;;21.47;100.00;101070.72;5078946;27;45327;-69
2021/07/28 08:50:10;;;;;;;;;3.00;1.00;;;;;21.56;100.00;101083.53;5094079;27;45461;-69
2021/07/28 08:52:36;;;;;;;;;2.00;1.00;;;;;21.56;100.00;101053.44;5087452;27;45521;-69
2021/07/28 08:55:03;;;;;;;;;1.00;1.00;;;;;21.65;100.00;101064.41;5094313;27;46341;-69
2021/07/28 08:57:32;;;;;;;;;1.00;1.00;;;;;21.79;100.00;101068.13;5086030;27;45370;-70
2021/07/28 08:59:58;;;;;;;;;2.00;1.00;;;;;21.84;100.00;101074.88;5091413;27;45510;-69
2021/07/28 09:02:27;;;;;;;;;1.00;0.00;;;;;21.94;100.00;101065.44;5097605;27;45450;-68
2021/07/28 09:04:53;;;;;;;;;2.00;1.75;;;;;22.11;100.00;101072.50;5082732;27;45458;-69
2021/07/28 09:07:21;;;;;;;;;1.00;1.00;;;;;22.37;100.00;101086.97;5077163;27;45357;-68
2021/07/28 09:09:49;;;;;;;;;1.75;1.00;;;;;22.53;100.00;101074.47;5090363;27;45454;-68
2021/07/28 09:12:15;;;;;;;;;2.00;2.00;;;;;22.63;100.00;101080.09;5096798;27;45374;-68
2021/07/28 09:14:51;;;;;;;;;2.00;1.00;;;;;22.60;100.00;101070.50;5094260;27;46152;-67
2021/07/28 09:17:19;;;;;;;;;1.00;1.00;;;;;22.67;100.00;101064.84;5096562;27;45601;-67
2021/07/28 09:19:46;;;;;;;;;1.00;1.00;;;;;22.87;100.00;101068.06;5087618;27;45396;-67
2021/07/28 09:22:13;;;;;;;;;2.25;1.50;;;;;23.09;100.00;101088.06;5082744;27;45485;-68
2021/07/28 09:24:40;;;;;;;;;0.75;0.75;;;;;23.19;100.00;101073.22;5087320;27;48215;-68
2021/07/28 09:27:05;;;;;;;;;1.75;1.25;;;;;23.32;100.00;101074.19;5091660;27;45396;-69
2021/07/28 09:29:32;;;;;;;;;2.25;2.00;;;;;23.40;100.00;101055.91;5088133;27;45479;-68
2021/07/28 09:32:02;;;;;;;;;1.00;1.00;;;;;23.60;100.00;101080.47;5085973;27;45415;-68
2021/07/28 09:34:27;;;;;;;;;1.00;1.00;;;;;23.61;100.00;101075.06;5076411;27;47706;-69
2021/07/28 09:37:17;;;;;;;;;2.00;1.50;;;;;23.81;100.00;101081.78;5087996;27;45480;-68
2021/07/28 09:39:44;;;;;;;;;1.25;1.00;;;;;23.99;100.00;101080.59;5079373;27;46636;-68
2021/07/28 09:42:15;;;;;;;;;2.00;1.00;;;;;24.07;100.00;101064.94;5095296;27;45580;-68
2021/07/28 09:44:43;;;;;;;;;1.75;1.75;;;;;24.17;100.00;101078.53;5079542;27;47057;-68
2021/07/28 09:47:12;;;;;;;;;2.00;2.00;;;;;24.11;100.00;101047.78;5096916;27;45376;-68
2021/07/28 09:49:44;;;;;;;;;1.75;1.75;;;;;24.25;100.00;101067.38;5091123;27;45419;-69
2021/07/28 09:52:33;;;;;;;;;2.75;2.00;;;;;24.36;100.00;101083.53;5088972;27;45393;-68
2021/07/28 09:55:24;;;;;;;;;3.25;1.75;;;;;24.61;100.00;101070.25;5078428;27;45491;-68
2021/07/28 09:57:57;;;;;;;;;1.50;1.00;;;;;25.01;100.00;101075.59;5088353;27;45459;-69
2021/07/28 10:00:24;;;;;;;;;2.25;2.00;;;;;25.42;100.00;101074.50;5096255;27;45448;-69
2021/07/28 10:02:51;;;;;;;;;2.75;2.00;;;;;25.87;100.00;101065.88;5085138;27;45483;-68
2021/07/28 10:05:19;;;;;;;;;2.00;2.00;;;;;26.62;100.00;101072.81;5095022;27;46428;-68
2021/07/28 10:07:49;;;;;;;;;2.75;2.00;;;;;27.19;100.00;101046.06;5086628;27;45430;-69
2021/07/28 10:10:18;;;;;;;;;2.25;2.00;;;;;27.84;100.00;101073.94;5094087;27;45613;-68
2021/07/28 10:12:44;;;;;;;;;1.25;1.25;;;;;28.70;100.00;101055.09;5079173;27;45356;-68
2021/07/28 10:15:10;;;;;;;;;2.00;1.25;;;;;29.54;100.00;101064.81;5076384;27;46101;-69
2021/07/28 10:17:40;;;;;;;;;1.50;1.50;;;;;30.04;100.00;101062.13;5096137;27;45960;-68
2021/07/28 10:20:08;;;;;;;;;1.75;1.75;;;;;30.21;100.00;101057.03;5096038;27;46588;-68
2021/07/28 10:22:36;;;;;;;;;1.75;1.25;;;;;29.93;100.00;101064.91;5076439;27;45481;-68
2021/07/28 10:25:04;;;;;;;;;1.25;1.25;;;;;29.57;100.00;101064.53;5093780;27;45739;-68
2021/07/28 10:27:38;;;;;;;;;4.00;3.00;;;;;29.01;100.00;101066.81;5095810;27;45658;-68
2021/07/28 10:30:04;;;;;;;;;3.00;2.00;;;;;28.52;100.00;101065.59;5095853;27;45391;-68
2021/07/28 10:32:33;;;;;;;;;2.00;2.00;;;;;28.39;100.00;101067.59;5081648;27;45460;-69
2021/07/28 10:35:22;;;;;;;;;2.00;2.00;;;;;28.62;100.00;101069.19;5094981;27;46319;-68
2021/07/28 10:37:48;;;;;;;;;2.25;2.25;;;;;29.07;100.00;101062.72;5093962;27;45702;-69
2021/07/28 10:40:32;;;;;;;;;2.25;2.25;;;;;30.08;100.00;101062.69;5086102;27;45431;-68
2021/07/28 10:42:57;;;;;;;;;0.25;0.25;;;;;30.24;100.00;101062.13;5075517;27;45437;-69
2021/07/28 10:45:24;;;;;;;;;1.75;1.00;;;;;29.91;100.00;101063.34;5086690;27;45499;-68
2021/07/28 10:47:53;;;;;;;;;3.50;1.25;;;;;29.44;100.00;101055.81;5095577;27;45650;-68
2021/07/28 10:50:22;;;;;;;;;1.25;1.25;;;;;28.79;100.00;101067.75;5089115;27;45302;-68
2021/07/28 10:52:50;;;;;;;;;2.25;2.00;;;;;28.03;100.00;101072.31;5075824;27;45409;-69
2021/07/28 10:55:20;;;;;;;;;1.00;1.00;;;;;27.40;100.00;101068.50;5080456;27;46523;-68
2021/07/28 10:57:48;;;;;;;;;2.25;1.25;;;;;26.76;100.00;101059.25;5084107;27;45354;-69
2021/07/28 11:00:43;;;;;;;;;2.00;2.00;;;;;26.29;100.00;101071.72;5086785;27;45405;-69
2021/07/28 11:03:09;;;;;;;;;2.00;1.50;;;;;25.99;100.00;101084.66;5108998;27;45240;-69
2021/07/28 11:05:42;;;;;;;;;1.00;1.00;;;;;25.82;100.00;101073.38;5098748;27;46540;-68
2021/07/28 11:08:09;;;;;;;;;1.75;1.00;;;;;25.86;100.00;101071.34;5086137;27;45583;-68
2021/07/28 11:10:41;;;;;;;;;3.00;2.00;;;;;25.85;100.00;101073.16;5089791;27;45341;-68
2021/07/28 11:13:11;;;;;;;;;3.00;2.00;;;;;25.88;100.00;101075.63;5079090;27;45435;-68
2021/07/28 11:15:38;;;;;;;;;1.75;1.75;;;;;25.54;100.00;101077.16;5096498;27;46569;-68
2021/07/28 11:18:04;;;;;;;;;1.50;1.00;;;;;25.11;100.00;101070.44;5088600;27;45336;-68
2021/07/28 11:20:30;;;;;;;;;0.75;0.75;;;;;24.76;100.00;101081.72;5081748;27;45668;-68
2021/07/28 11:23:20;;;;;;;;;2.50;1.00;;;;;24.54;100.00;101089.47;5089942;27;45519;-69
2021/07/28 11:25:49;;;;;;;;;0.75;0.75;;;;;24.47;100.00;101085.53;5096362;27;46425;-68